createdAt,value
2022-09-01T00:02:21.491Z,12.15
2022-09-01T00:05:23.683Z,12.14
2022-09-01T00:08:25.543Z,12.21
2022-09-01T00:11:28.548Z,12.12
2022-09-01T00:14:33.251Z,12.11
2022-09-01T00:17:35.685Z,12.07
2022-09-01T00:20:37.464Z,12.07
2022-09-01T00:23:39.813Z,12.09
2022-09-01T00:26:41.871Z,12.06
2022-09-01T00:29:44.152Z,12.07
2022-09-01T00:32:46.895Z,12.12
2022-09-01T00:35:48.774Z,12.11
2022-09-01T00:38:51.446Z,12.09
2022-09-01T00:41:53.496Z,12.13
2022-09-01T00:44:55.185Z,12.15
2022-09-01T00:47:57.347Z,12.20
2022-09-01T00:51:01.318Z,12.15
2022-09-01T00:54:04.053Z,12.05
2022-09-01T00:57:06.475Z,12.10
2022-09-01T01:00:11.589Z,12.06
2022-09-01T01:03:14.382Z,11.96
2022-09-01T01:06:17.158Z,11.99
2022-09-01T01:09:21.988Z,11.99
2022-09-01T01:12:23.875Z,12.00
2022-09-01T01:15:25.699Z,12.03
2022-09-01T01:18:27.487Z,11.99
2022-09-01T01:22:05.714Z,12.02
2022-09-01T01:25:07.916Z,11.95
2022-09-01T01:28:31.096Z,12.00
2022-09-01T01:31:33.766Z,11.99
2022-09-01T01:34:35.518Z,11.97
2022-09-01T01:37:37.253Z,11.98
2022-09-01T01:40:40.746Z,11.87
2022-09-01T01:43:42.896Z,11.86
2022-09-01T01:46:50.188Z,11.78
2022-09-01T01:49:53.130Z,11.73
2022-09-01T01:52:58.609Z,11.71
2022-09-01T01:56:02.356Z,11.67
2022-09-01T01:59:16.536Z,11.63
2022-09-01T02:02:18.709Z,11.59
2022-09-01T02:05:25.457Z,11.56
2022-09-01T02:08:27.765Z,11.52
2022-09-01T02:11:37.850Z,11.46
2022-09-01T02:14:40.623Z,11.43
2022-09-01T02:17:45.716Z,11.38
2022-09-01T02:20:49.516Z,11.33
2022-09-01T02:24:02.017Z,11.29
2022-09-01T02:27:06.410Z,11.22
2022-09-01T02:30:10.382Z,11.16
2022-09-01T02:33:19.139Z,11.15
2022-09-01T02:36:25.485Z,11.14
2022-09-01T02:39:29.660Z,11.12
2022-09-01T02:42:31.830Z,11.06
2022-09-01T02:45:34.359Z,10.99
2022-09-01T02:48:39.367Z,10.98
2022-09-01T02:51:44.303Z,10.94
2022-09-01T02:54:49.049Z,10.90
2022-09-01T02:57:57.105Z,10.87
2022-09-01T03:00:59.673Z,10.81
2022-09-01T03:04:05.628Z,10.81
2022-09-01T03:07:08.765Z,10.79
2022-09-01T03:10:10.521Z,10.76
2022-09-01T03:13:18.122Z,10.77
2022-09-01T03:16:20.476Z,10.80
2022-09-01T03:19:22.302Z,10.81
2022-09-01T03:22:24.420Z,10.79
2022-09-01T03:25:27.612Z,10.77
2022-09-01T03:28:29.869Z,10.73
2022-09-01T03:31:32.099Z,10.72
2022-09-01T03:34:36.935Z,10.73
2022-09-01T03:37:39.662Z,10.73
2022-09-01T03:40:41.439Z,10.67
2022-09-01T03:43:46.899Z,10.68
2022-09-01T03:46:49.420Z,10.71
2022-09-01T03:49:51.798Z,10.72
2022-09-01T03:52:58.919Z,10.73
2022-09-01T03:56:04.166Z,10.68
2022-09-01T03:59:07.651Z,10.66
2022-09-01T04:02:09.942Z,10.69
2022-09-01T04:05:11.815Z,10.69
2022-09-01T04:08:14.012Z,10.64
2022-09-01T04:11:24.085Z,10.66
2022-09-01T04:14:30.514Z,10.68
2022-09-01T04:17:51.169Z,10.69
2022-09-01T04:20:59.767Z,10.70
2022-09-01T04:24:05.210Z,10.73
2022-09-01T04:27:09.028Z,10.72
2022-09-01T04:30:12.223Z,10.72
2022-09-01T04:33:18.635Z,10.72
2022-09-01T04:36:34.082Z,10.73
2022-09-01T04:39:37.025Z,10.83
2022-09-01T04:42:39.852Z,10.94
2022-09-01T04:45:43.142Z,11.01
2022-09-01T04:48:45.990Z,11.16
2022-09-01T04:51:53.905Z,11.38
2022-09-01T04:54:58.175Z,11.42
2022-09-01T04:58:08.292Z,11.56
2022-09-01T05:01:23.261Z,11.65
2022-09-01T05:04:27.729Z,11.76
2022-09-01T05:07:30.119Z,11.97
2022-09-01T05:10:36.735Z,12.04
2022-09-01T05:13:49.235Z,12.04
2022-09-01T05:16:56.362Z,12.20
2022-09-01T05:19:58.553Z,12.18
2022-09-01T05:23:01.870Z,12.22
2022-09-01T05:26:06.425Z,12.39
2022-09-01T05:29:13.366Z,12.40
2022-09-01T05:32:16.140Z,12.68
2022-09-01T05:35:18.846Z,12.62
2022-09-01T05:38:20.795Z,12.73
2022-09-01T05:41:23.935Z,12.72
2022-09-01T05:44:25.747Z,12.99
2022-09-01T05:47:29.716Z,13.14
2022-09-01T05:50:31.759Z,13.37
2022-09-01T05:53:34.224Z,13.40
2022-09-01T05:56:44.142Z,13.53
2022-09-01T05:59:54.096Z,13.34
2022-09-01T06:02:58.691Z,13.24
2022-09-01T06:06:08.981Z,13.31
2022-09-01T06:09:12.069Z,13.47
2022-09-01T06:12:23.526Z,13.69
2022-09-01T06:15:27.227Z,13.87
2022-09-01T06:18:29.984Z,14.13
2022-09-01T06:21:38.481Z,14.20
2022-09-01T06:24:40.999Z,14.60
2022-09-01T06:27:48.337Z,15.05
2022-09-01T06:30:51.461Z,15.12
2022-09-01T06:33:55.903Z,14.83
2022-09-01T06:36:58.012Z,14.76
2022-09-01T06:39:59.858Z,14.95
2022-09-01T06:43:07.879Z,15.04
2022-09-01T06:46:12.046Z,14.95
2022-09-01T06:49:13.918Z,15.41
2022-09-01T06:52:16.074Z,15.13
2022-09-01T06:55:18.211Z,15.48
2022-09-01T06:58:21.416Z,15.33
2022-09-01T07:01:27.806Z,15.56
2022-09-01T07:04:31.514Z,15.68
2022-09-01T07:08:04.690Z,15.55
2022-09-01T07:18:25.932Z,16.00
2022-09-01T07:21:41.988Z,15.92
2022-09-01T07:25:12.229Z,15.90
2022-09-01T07:28:39.828Z,15.70
2022-09-01T07:32:41.141Z,15.97
2022-09-01T07:45:47.199Z,16.48
2022-09-01T07:52:15.543Z,17.50
2022-09-01T07:55:29.253Z,17.30
2022-09-01T07:58:31.493Z,17.89
2022-09-01T08:01:38.007Z,17.43
2022-09-01T08:04:40.271Z,17.77
2022-09-01T08:07:57.902Z,17.55
2022-09-01T08:11:08.054Z,17.43
2022-09-01T08:14:10.679Z,17.16
2022-09-01T08:20:45.178Z,17.00
2022-09-01T08:24:11.239Z,17.04
2022-09-01T08:27:13.033Z,17.20
2022-09-01T08:30:16.043Z,17.36
2022-09-01T08:33:19.027Z,17.62
2022-09-01T08:36:24.804Z,17.77
2022-09-01T08:39:27.787Z,17.71
2022-09-01T08:42:42.835Z,17.72
2022-09-01T08:45:53.656Z,17.53
2022-09-01T08:52:47.598Z,17.99
2022-09-01T08:55:55.230Z,17.56
2022-09-01T09:02:16.559Z,18.03
2022-09-01T09:05:18.477Z,18.49
2022-09-01T09:08:23.168Z,18.39
2022-09-01T09:11:37.356Z,17.94
2022-09-01T09:14:55.430Z,17.95
2022-09-01T09:18:20.268Z,18.08
2022-09-01T09:21:37.034Z,18.63
2022-09-01T09:24:48.339Z,18.61
2022-09-01T09:28:00.445Z,18.26
2022-09-01T09:31:37.596Z,18.77
2022-09-01T09:34:41.842Z,18.53
2022-09-01T09:37:43.723Z,18.45
2022-09-01T09:41:20.003Z,18.49
2022-09-01T09:44:29.941Z,18.54
2022-09-01T09:47:43.518Z,18.49
2022-09-01T09:50:46.554Z,18.84
2022-09-01T09:53:49.600Z,18.90
2022-09-01T09:57:14.577Z,18.87
2022-09-01T10:00:27.857Z,18.90
2022-09-01T10:03:51.637Z,19.12
2022-09-01T10:06:54.408Z,19.19
2022-09-01T10:10:00.628Z,19.42
2022-09-01T10:13:03.224Z,19.12
2022-09-01T10:16:10.489Z,19.54
2022-09-01T10:19:16.342Z,19.73
2022-09-01T10:22:19.080Z,19.48
2022-09-01T10:25:24.906Z,19.33
2022-09-01T10:28:31.085Z,19.94
2022-09-01T10:31:34.540Z,19.90
2022-09-01T10:34:41.967Z,19.69
2022-09-01T10:37:46.304Z,19.77
2022-09-01T10:41:07.777Z,20.02
2022-09-01T10:44:11.700Z,19.97
2022-09-01T10:47:37.958Z,20.06
2022-09-01T10:50:40.152Z,20.02
2022-09-01T10:53:49.043Z,19.88
2022-09-01T10:56:53.988Z,20.42
2022-09-01T10:59:58.405Z,20.77
2022-09-01T11:03:42.084Z,20.38
2022-09-01T11:07:13.863Z,20.59
2022-09-01T11:10:55.810Z,19.93
2022-09-01T11:14:01.492Z,20.02
2022-09-01T11:17:23.183Z,20.64
2022-09-01T11:20:37.676Z,20.28
2022-09-01T11:23:41.319Z,20.81
2022-09-01T11:26:49.888Z,20.76
2022-09-01T11:29:58.774Z,20.08
2022-09-01T11:33:14.153Z,20.17
2022-09-01T11:36:20.075Z,20.28
2022-09-01T11:39:35.781Z,20.52
2022-09-01T11:42:47.066Z,19.52
2022-09-01T11:46:17.637Z,19.49
2022-09-01T11:49:32.309Z,19.94
2022-09-01T11:52:38.981Z,20.62
2022-09-01T11:55:42.693Z,21.28
2022-09-01T11:58:44.857Z,21.01
2022-09-01T12:01:46.744Z,21.13
2022-09-01T12:04:50.801Z,20.73
2022-09-01T12:07:53.181Z,20.57
2022-09-01T12:11:09.928Z,21.02
2022-09-01T12:14:19.399Z,20.19
2022-09-01T12:17:21.361Z,20.56
2022-09-01T12:20:28.840Z,20.89
2022-09-01T12:23:36.124Z,20.50
2022-09-01T12:26:39.311Z,20.35
2022-09-01T12:29:42.307Z,20.97
2022-09-01T12:32:44.449Z,20.92
2022-09-01T12:35:47.023Z,19.84
2022-09-01T12:38:55.933Z,19.99
2022-09-01T12:42:17.009Z,20.04
2022-09-01T12:45:56.621Z,19.70
2022-09-01T12:49:19.937Z,20.01
2022-09-01T12:52:26.351Z,19.59
2022-09-01T12:59:26.184Z,19.69
2022-09-01T13:02:46.116Z,19.24
2022-09-01T13:05:52.426Z,20.02
2022-09-01T13:08:54.523Z,20.56
2022-09-01T13:12:16.107Z,20.47
2022-09-01T13:15:18.753Z,20.22
2022-09-01T13:18:23.358Z,19.89
2022-09-01T13:21:25.277Z,19.88
2022-09-01T13:24:31.147Z,20.05
2022-09-01T13:27:33.433Z,20.09
2022-09-01T13:30:35.400Z,20.23
2022-09-01T13:36:59.144Z,20.79
2022-09-01T13:40:01.795Z,20.52
2022-09-01T13:43:04.769Z,20.36
2022-09-01T13:46:06.776Z,20.34
2022-09-01T13:52:33.240Z,21.32
2022-09-01T13:55:39.630Z,21.08
2022-09-01T13:58:41.428Z,20.70
2022-09-01T14:01:43.500Z,20.77
2022-09-01T14:04:45.298Z,21.22
2022-09-01T14:07:47.336Z,21.01
2022-09-01T14:10:51.294Z,20.34
2022-09-01T14:13:53.205Z,19.92
2022-09-01T14:16:55.030Z,19.97
2022-09-01T14:19:57.562Z,19.88
2022-09-01T14:22:59.668Z,20.02
2022-09-01T14:26:01.614Z,20.14
2022-09-01T14:29:03.640Z,19.74
2022-09-01T14:32:07.910Z,19.65
2022-09-01T14:35:09.868Z,19.51
2022-09-01T14:38:13.475Z,19.15
2022-09-01T14:41:17.911Z,19.67
2022-09-01T14:44:19.764Z,20.30
2022-09-01T14:47:24.822Z,20.22
2022-09-01T14:50:28.984Z,20.37
2022-09-01T14:53:31.925Z,20.33
2022-09-01T14:56:33.912Z,20.12
2022-09-01T14:59:37.478Z,19.96
2022-09-01T15:02:41.122Z,20.30
2022-09-01T15:05:43.655Z,20.58
2022-09-01T15:08:45.943Z,20.29
2022-09-01T15:11:47.813Z,20.27
2022-09-01T15:14:49.548Z,20.21
2022-09-01T15:17:51.404Z,19.72
2022-09-01T15:20:53.965Z,19.81
2022-09-01T15:23:55.828Z,20.09
2022-09-01T15:26:57.890Z,19.54
2022-09-01T15:29:59.626Z,19.94
2022-09-01T15:33:02.286Z,19.71
2022-09-01T15:36:04.399Z,19.71
2022-09-01T15:39:08.142Z,19.65
2022-09-01T15:42:09.970Z,19.57
2022-09-01T15:45:18.737Z,19.45
2022-09-01T15:48:20.626Z,19.29
2022-09-01T15:51:22.358Z,19.49
2022-09-01T15:54:30.211Z,19.34
2022-09-01T15:57:32.384Z,19.08
2022-09-01T16:00:35.338Z,19.19
2022-09-01T16:03:37.206Z,19.20
2022-09-01T16:06:39.510Z,19.31
2022-09-01T16:09:41.298Z,18.99
2022-09-01T16:12:44.701Z,18.87
2022-09-01T16:16:12.323Z,19.07
2022-09-01T16:19:51.918Z,19.13
2022-09-01T16:22:58.145Z,19.18
2022-09-01T16:26:00.968Z,19.28
2022-09-01T16:29:12.519Z,18.93
2022-09-01T16:32:16.126Z,19.04
2022-09-01T16:35:21.017Z,19.06
2022-09-01T16:38:28.995Z,18.91
2022-09-01T16:42:02.206Z,18.86
2022-09-01T16:45:18.820Z,18.83
2022-09-01T16:48:43.633Z,18.62
2022-09-01T16:51:57.690Z,18.59
2022-09-01T16:55:22.996Z,18.39
2022-09-01T16:58:40.207Z,18.21
2022-09-01T17:02:09.611Z,17.75
2022-09-01T17:05:24.842Z,17.66
2022-09-01T17:08:34.312Z,17.61
2022-09-01T17:12:18.125Z,17.48
2022-09-01T17:15:28.786Z,17.36
2022-09-01T17:18:47.886Z,17.10
2022-09-01T17:21:57.107Z,17.11
2022-09-01T17:25:04.854Z,16.88
2022-09-01T17:28:15.105Z,16.74
2022-09-01T17:31:29.893Z,16.70
2022-09-01T17:34:51.808Z,16.53
2022-09-01T17:37:56.082Z,16.54
2022-09-01T17:41:34.294Z,16.32
2022-09-01T17:45:02.121Z,16.11
2022-09-01T17:48:18.472Z,16.16
2022-09-01T17:54:59.553Z,15.86
2022-09-01T17:58:22.642Z,15.74
2022-09-01T18:01:31.906Z,15.67
2022-09-01T18:04:47.311Z,15.60
2022-09-01T18:08:04.450Z,15.54
2022-09-01T18:11:12.027Z,15.42
2022-09-01T18:14:21.836Z,15.29
2022-09-01T18:17:31.580Z,15.22
2022-09-01T18:20:45.053Z,15.22
2022-09-01T18:23:50.731Z,15.12
2022-09-01T18:26:53.074Z,14.99
2022-09-01T18:29:54.956Z,14.99
2022-09-01T18:33:04.479Z,14.99
2022-09-01T18:36:42.244Z,15.02
2022-09-01T18:39:55.721Z,14.91
2022-09-01T18:43:22.435Z,14.86
2022-09-01T18:46:36.043Z,14.72
2022-09-01T18:49:43.680Z,14.63
2022-09-01T18:53:18.316Z,14.60
2022-09-01T18:56:45.904Z,14.54
2022-09-01T19:00:01.375Z,14.35
2022-09-01T19:03:10.658Z,14.34
2022-09-01T19:06:34.072Z,14.26
2022-09-01T19:09:50.964Z,14.22
2022-09-01T19:13:15.554Z,14.11
2022-09-01T19:16:39.042Z,13.98
2022-09-01T19:20:01.952Z,13.93
2022-09-01T19:23:28.121Z,13.73
2022-09-01T19:26:37.179Z,13.86
2022-09-01T19:29:53.074Z,13.86
2022-09-01T19:32:57.310Z,13.80
2022-09-01T19:36:06.298Z,13.76
2022-09-01T19:39:13.028Z,13.79
2022-09-01T19:42:46.094Z,13.70
2022-09-01T19:46:03.874Z,13.68
2022-09-01T19:49:44.157Z,13.62
2022-09-01T19:53:00.668Z,13.55
2022-09-01T19:56:07.267Z,13.40
2022-09-01T19:59:14.848Z,13.27
2022-09-01T20:02:51.519Z,13.17
2022-09-01T20:06:00.339Z,13.05
2022-09-01T20:09:12.783Z,13.00
2022-09-01T20:12:32.364Z,12.90
2022-09-01T20:15:47.908Z,12.96
2022-09-01T20:18:55.103Z,12.89
2022-09-01T20:22:10.609Z,12.87
2022-09-01T20:25:15.375Z,12.81
2022-09-01T20:28:45.667Z,12.73
2022-09-01T20:31:58.744Z,12.65
2022-09-01T20:35:07.874Z,12.57
2022-09-01T20:38:46.071Z,12.50
2022-09-01T20:42:01.935Z,12.40
2022-09-01T20:45:17.611Z,12.35
2022-09-01T20:48:26.029Z,12.28
2022-09-01T20:51:57.492Z,12.22
2022-09-01T20:55:26.194Z,12.06
2022-09-01T20:58:37.301Z,12.02
2022-09-01T21:01:56.012Z,11.97
2022-09-01T21:05:06.155Z,11.98
2022-09-01T21:08:28.028Z,11.88
2022-09-01T21:11:50.982Z,11.85
2022-09-01T21:14:58.370Z,11.79
2022-09-01T21:18:19.411Z,11.69
2022-09-01T21:21:41.339Z,11.62
2022-09-01T21:24:43.543Z,11.63
2022-09-01T21:27:51.279Z,11.60
2022-09-01T21:30:55.196Z,11.54
2022-09-01T21:33:57.055Z,11.49
2022-09-01T21:36:59.031Z,11.44
2022-09-01T21:40:00.935Z,11.40
2022-09-01T21:43:06.894Z,11.34
2022-09-01T21:46:10.185Z,11.35
2022-09-01T21:49:14.219Z,11.29
2022-09-01T21:52:16.420Z,11.28
2022-09-01T21:55:22.735Z,11.25
2022-09-01T21:58:24.947Z,11.21
2022-09-01T22:01:31.763Z,11.16
2022-09-01T22:04:37.033Z,11.08
2022-09-01T22:07:41.330Z,11.05
2022-09-01T22:10:46.595Z,10.97
2022-09-01T22:13:49.774Z,10.98
2022-09-01T22:16:52.248Z,10.94
2022-09-01T22:19:54.092Z,10.85
2022-09-01T22:23:01.735Z,10.82
2022-09-01T22:26:04.751Z,10.77
2022-09-01T22:29:07.119Z,10.75
2022-09-01T22:32:09.215Z,10.73
2022-09-01T22:35:12.359Z,10.69
2022-09-01T22:38:14.901Z,10.67
2022-09-01T22:41:22.736Z,10.65
2022-09-01T22:44:24.850Z,10.59
2022-09-01T22:47:26.570Z,10.56
2022-09-01T22:50:28.674Z,10.54
2022-09-01T22:53:31.022Z,10.51
2022-09-01T22:56:35.921Z,10.48
2022-09-01T22:59:37.672Z,10.45
2022-09-01T23:02:39.634Z,10.42
2022-09-01T23:05:43.019Z,10.39
2022-09-01T23:08:45.121Z,10.36
2022-09-01T23:11:47.860Z,10.34
2022-09-01T23:14:49.762Z,10.32
2022-09-01T23:17:51.501Z,10.29
2022-09-01T23:20:53.249Z,10.23
2022-09-01T23:23:58.728Z,10.20
2022-09-01T23:27:00.733Z,10.17
2022-09-01T23:30:03.865Z,10.14
2022-09-01T23:33:05.604Z,10.00
2022-09-01T23:36:10.347Z,9.87
2022-09-01T23:39:12.551Z,9.83
2022-09-01T23:42:14.241Z,9.76
2022-09-01T23:45:16.041Z,9.70
2022-09-01T23:48:19.225Z,9.65
2022-09-01T23:51:23.028Z,9.59
2022-09-01T23:54:24.825Z,9.57
2022-09-01T23:57:26.623Z,9.55
